sensor_id;sensor_type;location;lat;lon;timestamp;P1;durP1;ratioP1;P2;durP2;ratioP2
52816;SDS011;38687;43.330;21.924;2023-05-10T00:01:02;1.60;;;0.95;;
52816;SDS011;38687;43.330;21.924;2023-05-10T00:03:27;1.23;;;1.05;;
52816;SDS011;38687;43.330;21.924;2023-05-10T00:05:53;1.33;;;1.23;;
52816;SDS011;38687;43.330;21.924;2023-05-10T00:08:18;2.28;;;1.17;;
52816;SDS011;38687;43.330;21.924;2023-05-10T00:10:44;1.80;;;1.30;;
52816;SDS011;38687;43.330;21.924;2023-05-10T00:13:09;2.28;;;1.30;;
52816;SDS011;38687;43.330;21.924;2023-05-10T00:15:35;1.70;;;1.23;;
52816;SDS011;38687;43.330;21.924;2023-05-10T00:18:03;1.98;;;1.30;;
52816;SDS011;38687;43.330;21.924;2023-05-10T00:20:29;1.38;;;1.10;;
52816;SDS011;38687;43.330;21.924;2023-05-10T00:22:54;1.50;;;1.13;;
52816;SDS011;38687;43.330;21.924;2023-05-10T00:25:23;1.60;;;1.17;;
52816;SDS011;38687;43.330;21.924;2023-05-10T00:27:49;1.55;;;1.13;;
52816;SDS011;38687;43.330;21.924;2023-05-10T00:30:14;1.30;;;1.20;;
52816;SDS011;38687;43.330;21.924;2023-05-10T00:32:40;3.25;;;1.45;;
52816;SDS011;38687;43.330;21.924;2023-05-10T00:35:05;1.35;;;1.20;;
52816;SDS011;38687;43.330;21.924;2023-05-10T00:37:34;1.98;;;1.35;;
52816;SDS011;38687;43.330;21.924;2023-05-10T00:40:03;1.13;;;0.95;;
52816;SDS011;38687;43.330;21.924;2023-05-10T00:42:29;1.67;;;1.30;;
52816;SDS011;38687;43.330;21.924;2023-05-10T00:44:55;1.00;;;0.93;;
52816;SDS011;38687;43.330;21.924;2023-05-10T00:47:21;1.23;;;1.02;;
52816;SDS011;38687;43.330;21.924;2023-05-10T00:49:50;1.35;;;1.00;;
52816;SDS011;38687;43.330;21.924;2023-05-10T00:52:16;2.22;;;1.00;;
52816;SDS011;38687;43.330;21.924;2023-05-10T00:54:41;1.42;;;1.05;;
52816;SDS011;38687;43.330;21.924;2023-05-10T00:57:07;1.10;;;1.00;;
52816;SDS011;38687;43.330;21.924;2023-05-10T00:59:32;1.10;;;1.00;;
52816;SDS011;38687;43.330;21.924;2023-05-10T01:02:01;1.20;;;0.93;;
52816;SDS011;38687;43.330;21.924;2023-05-10T01:04:26;1.73;;;0.90;;
52816;SDS011;38687;43.330;21.924;2023-05-10T01:06:53;1.20;;;0.90;;
52816;SDS011;38687;43.330;21.924;2023-05-10T01:09:21;1.02;;;0.95;;
52816;SDS011;38687;43.330;21.924;2023-05-10T01:11:47;0.80;;;0.80;;
52816;SDS011;38687;43.330;21.924;2023-05-10T01:14:13;1.63;;;1.00;;
52816;SDS011;38687;43.330;21.924;2023-05-10T01:16:40;1.65;;;0.70;;
52816;SDS011;38687;43.330;21.924;2023-05-10T01:19:10;1.17;;;0.95;;
52816;SDS011;38687;43.330;21.924;2023-05-10T01:21:43;0.75;;;0.70;;
52816;SDS011;38687;43.330;21.924;2023-05-10T01:34:49;1.33;;;1.10;;
52816;SDS011;38687;43.330;21.924;2023-05-10T01:37:21;1.25;;;0.80;;
52816;SDS011;38687;43.330;21.924;2023-05-10T01:40:13;1.45;;;0.70;;
52816;SDS011;38687;43.330;21.924;2023-05-10T01:42:46;1.00;;;0.80;;
52816;SDS011;38687;43.330;21.924;2023-05-10T01:45:27;0.98;;;0.88;;
52816;SDS011;38687;43.330;21.924;2023-05-10T01:48:09;0.80;;;0.60;;
52816;SDS011;38687;43.330;21.924;2023-05-10T01:50:36;1.52;;;0.73;;
52816;SDS011;38687;43.330;21.924;2023-05-10T01:53:02;0.57;;;0.57;;
52816;SDS011;38687;43.330;21.924;2023-05-10T01:55:32;1.60;;;0.73;;
52816;SDS011;38687;43.330;21.924;2023-05-10T01:58:05;0.90;;;0.90;;
52816;SDS011;38687;43.330;21.924;2023-05-10T02:00:33;0.85;;;0.70;;
52816;SDS011;38687;43.330;21.924;2023-05-10T02:02:59;2.10;;;0.88;;
52816;SDS011;38687;43.330;21.924;2023-05-10T02:05:29;1.13;;;0.93;;
52816;SDS011;38687;43.330;21.924;2023-05-10T02:07:55;1.00;;;0.85;;
52816;SDS011;38687;43.330;21.924;2023-05-10T02:10:21;1.90;;;1.20;;
52816;SDS011;38687;43.330;21.924;2023-05-10T02:12:47;1.83;;;0.90;;
52816;SDS011;38687;43.330;21.924;2023-05-10T02:15:15;0.80;;;0.80;;
52816;SDS011;38687;43.330;21.924;2023-05-10T02:17:46;0.75;;;0.75;;
52816;SDS011;38687;43.330;21.924;2023-05-10T02:20:11;0.95;;;0.60;;
52816;SDS011;38687;43.330;21.924;2023-05-10T02:22:37;1.08;;;0.90;;
52816;SDS011;38687;43.330;21.924;2023-05-10T02:25:04;2.92;;;0.90;;
52816;SDS011;38687;43.330;21.924;2023-05-10T02:27:30;0.95;;;0.82;;
52816;SDS011;38687;43.330;21.924;2023-05-10T02:29:56;0.80;;;0.80;;
52816;SDS011;38687;43.330;21.924;2023-05-10T02:32:24;1.20;;;0.98;;
52816;SDS011;38687;43.330;21.924;2023-05-10T02:34:50;1.02;;;0.90;;
52816;SDS011;38687;43.330;21.924;2023-05-10T02:37:18;1.27;;;1.17;;
52816;SDS011;38687;43.330;21.924;2023-05-10T02:39:52;1.35;;;1.20;;
52816;SDS011;38687;43.330;21.924;2023-05-10T02:42:19;1.10;;;1.00;;
52816;SDS011;38687;43.330;21.924;2023-05-10T02:44:47;1.20;;;1.08;;
52816;SDS011;38687;43.330;21.924;2023-05-10T02:47:14;2.17;;;1.38;;
52816;SDS011;38687;43.330;21.924;2023-05-10T02:49:39;1.50;;;1.20;;
52816;SDS011;38687;43.330;21.924;2023-05-10T02:52:05;2.85;;;1.05;;
52816;SDS011;38687;43.330;21.924;2023-05-10T02:54:37;1.02;;;0.95;;
52816;SDS011;38687;43.330;21.924;2023-05-10T02:57:05;1.48;;;1.38;;
52816;SDS011;38687;43.330;21.924;2023-05-10T02:59:31;1.33;;;1.02;;
52816;SDS011;38687;43.330;21.924;2023-05-10T03:01:58;5.85;;;3.17;;
52816;SDS011;38687;43.330;21.924;2023-05-10T03:04:25;1.65;;;1.30;;
52816;SDS011;38687;43.330;21.924;2023-05-10T03:06:51;1.45;;;1.35;;
52816;SDS011;38687;43.330;21.924;2023-05-10T03:09:17;2.00;;;1.25;;
52816;SDS011;38687;43.330;21.924;2023-05-10T03:11:47;1.33;;;1.20;;
52816;SDS011;38687;43.330;21.924;2023-05-10T03:14:21;1.55;;;1.13;;
52816;SDS011;38687;43.330;21.924;2023-05-10T03:16:59;1.90;;;1.55;;
52816;SDS011;38687;43.330;21.924;2023-05-10T03:19:36;1.95;;;1.50;;
52816;SDS011;38687;43.330;21.924;2023-05-10T03:22:10;1.40;;;1.30;;
52816;SDS011;38687;43.330;21.924;2023-05-10T03:24:36;1.60;;;1.50;;
52816;SDS011;38687;43.330;21.924;2023-05-10T03:27:01;2.25;;;1.50;;
52816;SDS011;38687;43.330;21.924;2023-05-10T03:29:29;2.25;;;1.50;;
52816;SDS011;38687;43.330;21.924;2023-05-10T03:31:57;1.30;;;1.20;;
52816;SDS011;38687;43.330;21.924;2023-05-10T03:34:24;1.70;;;1.50;;
52816;SDS011;38687;43.330;21.924;2023-05-10T03:36:50;1.92;;;1.50;;
52816;SDS011;38687;43.330;21.924;2023-05-10T03:39:15;1.70;;;1.60;;
52816;SDS011;38687;43.330;21.924;2023-05-10T03:41:40;2.17;;;1.60;;
52816;SDS011;38687;43.330;21.924;2023-05-10T03:44:06;2.45;;;2.20;;
52816;SDS011;38687;43.330;21.924;2023-05-10T03:46:31;2.33;;;1.85;;
52816;SDS011;38687;43.330;21.924;2023-05-10T03:48:57;2.47;;;2.28;;
52816;SDS011;38687;43.330;21.924;2023-05-10T03:51:22;2.20;;;2.00;;
52816;SDS011;38687;43.330;21.924;2023-05-10T03:53:49;1.77;;;1.67;;
52816;SDS011;38687;43.330;21.924;2023-05-10T03:56:15;2.67;;;2.00;;
52816;SDS011;38687;43.330;21.924;2023-05-10T03:58:40;2.10;;;1.90;;
52816;SDS011;38687;43.330;21.924;2023-05-10T04:01:05;2.25;;;2.05;;
52816;SDS011;38687;43.330;21.924;2023-05-10T04:03:31;2.50;;;2.30;;
52816;SDS011;38687;43.330;21.924;2023-05-10T04:06:00;2.85;;;2.42;;
52816;SDS011;38687;43.330;21.924;2023-05-10T04:08:26;4.45;;;2.60;;
52816;SDS011;38687;43.330;21.924;2023-05-10T04:10:52;3.15;;;2.20;;
52816;SDS011;38687;43.330;21.924;2023-05-10T04:13:17;2.30;;;2.20;;
52816;SDS011;38687;43.330;21.924;2023-05-10T04:15:42;2.30;;;2.10;;
52816;SDS011;38687;43.330;21.924;2023-05-10T04:18:08;1.90;;;1.70;;
52816;SDS011;38687;43.330;21.924;2023-05-10T04:20:34;2.33;;;2.10;;
52816;SDS011;38687;43.330;21.924;2023-05-10T04:22:59;3.72;;;2.90;;
52816;SDS011;38687;43.330;21.924;2023-05-10T04:25:24;5.97;;;3.20;;
52816;SDS011;38687;43.330;21.924;2023-05-10T04:27:50;2.60;;;2.33;;
52816;SDS011;38687;43.330;21.924;2023-05-10T04:30:15;3.08;;;2.65;;
52816;SDS011;38687;43.330;21.924;2023-05-10T04:32:41;2.30;;;2.10;;
52816;SDS011;38687;43.330;21.924;2023-05-10T04:35:06;2.33;;;2.05;;
52816;SDS011;38687;43.330;21.924;2023-05-10T04:37:32;2.40;;;2.20;;
52816;SDS011;38687;43.330;21.924;2023-05-10T04:39:57;2.53;;;2.33;;
52816;SDS011;38687;43.330;21.924;2023-05-10T04:42:24;2.60;;;2.40;;
52816;SDS011;38687;43.330;21.924;2023-05-10T04:44:50;3.53;;;2.80;;
52816;SDS011;38687;43.330;21.924;2023-05-10T04:47:16;3.55;;;2.83;;
52816;SDS011;38687;43.330;21.924;2023-05-10T04:49:42;4.03;;;3.05;;
52816;SDS011;38687;43.330;21.924;2023-05-10T04:52:07;2.45;;;2.22;;
52816;SDS011;38687;43.330;21.924;2023-05-10T04:54:33;2.67;;;2.40;;
52816;SDS011;38687;43.330;21.924;2023-05-10T04:56:59;2.92;;;2.65;;
52816;SDS011;38687;43.330;21.924;2023-05-10T04:59:25;1.98;;;1.77;;
52816;SDS011;38687;43.330;21.924;2023-05-10T05:01:50;2.35;;;2.10;;
52816;SDS011;38687;43.330;21.924;2023-05-10T05:04:16;3.05;;;2.60;;
52816;SDS011;38687;43.330;21.924;2023-05-10T05:06:41;2.60;;;2.35;;
52816;SDS011;38687;43.330;21.924;2023-05-10T05:09:07;3.40;;;2.60;;
52816;SDS011;38687;43.330;21.924;2023-05-10T05:11:32;2.60;;;2.38;;
52816;SDS011;38687;43.330;21.924;2023-05-10T05:13:57;5.20;;;3.20;;
52816;SDS011;38687;43.330;21.924;2023-05-10T05:16:24;3.33;;;2.40;;
52816;SDS011;38687;43.330;21.924;2023-05-10T05:18:50;3.40;;;2.63;;
52816;SDS011;38687;43.330;21.924;2023-05-10T05:21:16;2.38;;;2.13;;
52816;SDS011;38687;43.330;21.924;2023-05-10T05:23:42;2.42;;;2.22;;
52816;SDS011;38687;43.330;21.924;2023-05-10T05:26:08;2.85;;;2.63;;
52816;SDS011;38687;43.330;21.924;2023-05-10T05:28:33;2.65;;;2.45;;
52816;SDS011;38687;43.330;21.924;2023-05-10T05:31:02;3.92;;;3.05;;
52816;SDS011;38687;43.330;21.924;2023-05-10T05:33:30;4.30;;;3.67;;
52816;SDS011;38687;43.330;21.924;2023-05-10T05:35:56;5.10;;;4.05;;
52816;SDS011;38687;43.330;21.924;2023-05-10T05:38:21;9.00;;;6.28;;
52816;SDS011;38687;43.330;21.924;2023-05-10T05:40:47;7.93;;;6.13;;
52816;SDS011;38687;43.330;21.924;2023-05-10T05:43:12;7.50;;;5.22;;
52816;SDS011;38687;43.330;21.924;2023-05-10T05:45:41;5.95;;;4.85;;
52816;SDS011;38687;43.330;21.924;2023-05-10T05:48:06;15.68;;;9.13;;
52816;SDS011;38687;43.330;21.924;2023-05-10T05:50:32;11.40;;;8.20;;
52816;SDS011;38687;43.330;21.924;2023-05-10T05:53:00;6.75;;;4.88;;
52816;SDS011;38687;43.330;21.924;2023-05-10T05:55:26;6.15;;;4.18;;
52816;SDS011;38687;43.330;21.924;2023-05-10T05:57:54;6.90;;;4.85;;
52816;SDS011;38687;43.330;21.924;2023-05-10T06:00:20;3.88;;;3.05;;
52816;SDS011;38687;43.330;21.924;2023-05-10T06:02:46;5.05;;;3.95;;
52816;SDS011;38687;43.330;21.924;2023-05-10T06:05:13;7.45;;;4.25;;
52816;SDS011;38687;43.330;21.924;2023-05-10T06:07:40;7.15;;;4.55;;
52816;SDS011;38687;43.330;21.924;2023-05-10T06:10:07;6.13;;;4.38;;
52816;SDS011;38687;43.330;21.924;2023-05-10T06:12:33;6.45;;;5.03;;
52816;SDS011;38687;43.330;21.924;2023-05-10T06:14:59;5.85;;;3.90;;
52816;SDS011;38687;43.330;21.924;2023-05-10T06:17:24;5.45;;;4.18;;
52816;SDS011;38687;43.330;21.924;2023-05-10T06:19:50;3.88;;;3.47;;
52816;SDS011;38687;43.330;21.924;2023-05-10T06:22:15;6.40;;;4.35;;
52816;SDS011;38687;43.330;21.924;2023-05-10T06:24:41;4.93;;;4.00;;
52816;SDS011;38687;43.330;21.924;2023-05-10T06:27:06;4.15;;;3.35;;
52816;SDS011;38687;43.330;21.924;2023-05-10T06:29:32;5.88;;;4.07;;
52816;SDS011;38687;43.330;21.924;2023-05-10T06:31:57;7.10;;;4.57;;
52816;SDS011;38687;43.330;21.924;2023-05-10T06:34:23;5.15;;;3.90;;
52816;SDS011;38687;43.330;21.924;2023-05-10T06:36:49;6.22;;;3.88;;
52816;SDS011;38687;43.330;21.924;2023-05-10T06:39:14;7.93;;;3.83;;
52816;SDS011;38687;43.330;21.924;2023-05-10T06:41:40;4.28;;;2.63;;
52816;SDS011;38687;43.330;21.924;2023-05-10T06:44:06;3.90;;;2.92;;
52816;SDS011;38687;43.330;21.924;2023-05-10T06:46:31;3.53;;;3.22;;
52816;SDS011;38687;43.330;21.924;2023-05-10T06:48:57;3.70;;;3.40;;
52816;SDS011;38687;43.330;21.924;2023-05-10T06:51:23;3.92;;;3.30;;
52816;SDS011;38687;43.330;21.924;2023-05-10T06:53:49;7.35;;;3.45;;
52816;SDS011;38687;43.330;21.924;2023-05-10T06:56:14;3.55;;;3.25;;
52816;SDS011;38687;43.330;21.924;2023-05-10T06:58:40;3.67;;;3.15;;
52816;SDS011;38687;43.330;21.924;2023-05-10T07:01:05;4.88;;;3.80;;
52816;SDS011;38687;43.330;21.924;2023-05-10T07:03:31;6.07;;;4.75;;
52816;SDS011;38687;43.330;21.924;2023-05-10T07:06:03;4.53;;;3.00;;
52816;SDS011;38687;43.330;21.924;2023-05-10T07:08:32;3.83;;;3.10;;
52816;SDS011;38687;43.330;21.924;2023-05-10T07:11:06;4.40;;;2.97;;
52816;SDS011;38687;43.330;21.924;2023-05-10T07:13:32;4.03;;;2.50;;
52816;SDS011;38687;43.330;21.924;2023-05-10T07:15:58;5.93;;;3.78;;
52816;SDS011;38687;43.330;21.924;2023-05-10T07:18:25;6.97;;;5.25;;
52816;SDS011;38687;43.330;21.924;2023-05-10T07:20:52;5.88;;;3.95;;
52816;SDS011;38687;43.330;21.924;2023-05-10T07:23:17;6.55;;;4.60;;
52816;SDS011;38687;43.330;21.924;2023-05-10T07:25:50;5.95;;;3.72;;
52816;SDS011;38687;43.330;21.924;2023-05-10T07:28:17;4.47;;;3.85;;
52816;SDS011;38687;43.330;21.924;2023-05-10T07:30:43;7.15;;;3.58;;
52816;SDS011;38687;43.330;21.924;2023-05-10T07:33:09;4.90;;;3.28;;
52816;SDS011;38687;43.330;21.924;2023-05-10T07:35:36;6.57;;;3.28;;
52816;SDS011;38687;43.330;21.924;2023-05-10T07:38:03;3.97;;;2.65;;
52816;SDS011;38687;43.330;21.924;2023-05-10T07:40:29;4.57;;;3.50;;
52816;SDS011;38687;43.330;21.924;2023-05-10T07:42:55;5.63;;;3.75;;
52816;SDS011;38687;43.330;21.924;2023-05-10T07:45:21;8.40;;;4.38;;
52816;SDS011;38687;43.330;21.924;2023-05-10T07:47:47;8.10;;;4.93;;
52816;SDS011;38687;43.330;21.924;2023-05-10T07:50:13;6.07;;;4.22;;
52816;SDS011;38687;43.330;21.924;2023-05-10T07:52:39;9.48;;;4.55;;
52816;SDS011;38687;43.330;21.924;2023-05-10T07:55:04;8.48;;;6.25;;
52816;SDS011;38687;43.330;21.924;2023-05-10T07:57:30;4.60;;;4.03;;
52816;SDS011;38687;43.330;21.924;2023-05-10T07:59:56;7.25;;;4.50;;
52816;SDS011;38687;43.330;21.924;2023-05-10T08:02:21;7.93;;;5.10;;
52816;SDS011;38687;43.330;21.924;2023-05-10T08:04:46;5.90;;;4.88;;
52816;SDS011;38687;43.330;21.924;2023-05-10T08:07:12;7.45;;;4.78;;
52816;SDS011;38687;43.330;21.924;2023-05-10T08:09:37;6.53;;;4.25;;
52816;SDS011;38687;43.330;21.924;2023-05-10T08:12:03;10.15;;;4.78;;
52816;SDS011;38687;43.330;21.924;2023-05-10T08:14:28;6.82;;;5.10;;
52816;SDS011;38687;43.330;21.924;2023-05-10T08:16:54;6.75;;;4.63;;
52816;SDS011;38687;43.330;21.924;2023-05-10T08:19:20;6.43;;;4.93;;
52816;SDS011;38687;43.330;21.924;2023-05-10T08:21:46;6.78;;;4.90;;
52816;SDS011;38687;43.330;21.924;2023-05-10T08:24:12;7.40;;;5.20;;
52816;SDS011;38687;43.330;21.924;2023-05-10T08:26:37;6.50;;;4.57;;
52816;SDS011;38687;43.330;21.924;2023-05-10T08:29:03;11.52;;;5.28;;
52816;SDS011;38687;43.330;21.924;2023-05-10T08:31:28;9.30;;;5.80;;
52816;SDS011;38687;43.330;21.924;2023-05-10T08:33:53;7.30;;;5.03;;
52816;SDS011;38687;43.330;21.924;2023-05-10T08:36:19;6.75;;;4.50;;
52816;SDS011;38687;43.330;21.924;2023-05-10T08:38:55;6.47;;;4.35;;
52816;SDS011;38687;43.330;21.924;2023-05-10T08:41:21;5.90;;;5.18;;
52816;SDS011;38687;43.330;21.924;2023-05-10T08:43:49;12.50;;;8.20;;
52816;SDS011;38687;43.330;21.924;2023-05-10T08:46:16;5.72;;;4.50;;
52816;SDS011;38687;43.330;21.924;2023-05-10T08:48:44;4.68;;;3.97;;
52816;SDS011;38687;43.330;21.924;2023-05-10T08:51:12;4.93;;;3.95;;
52816;SDS011;38687;43.330;21.924;2023-05-10T08:53:39;4.40;;;4.00;;
52816;SDS011;38687;43.330;21.924;2023-05-10T08:56:04;4.88;;;4.43;;
52816;SDS011;38687;43.330;21.924;2023-05-10T08:58:30;6.10;;;4.40;;
52816;SDS011;38687;43.330;21.924;2023-05-10T09:00:56;8.82;;;6.05;;
52816;SDS011;38687;43.330;21.924;2023-05-10T09:03:22;8.38;;;6.80;;
52816;SDS011;38687;43.330;21.924;2023-05-10T09:05:48;6.35;;;4.40;;
52816;SDS011;38687;43.330;21.924;2023-05-10T09:08:14;9.05;;;5.97;;
52816;SDS011;38687;43.330;21.924;2023-05-10T09:10:41;8.57;;;5.30;;
52816;SDS011;38687;43.330;21.924;2023-05-10T09:13:08;7.72;;;5.05;;
52816;SDS011;38687;43.330;21.924;2023-05-10T09:15:35;5.60;;;4.68;;
52816;SDS011;38687;43.330;21.924;2023-05-10T09:18:00;6.38;;;4.25;;
52816;SDS011;38687;43.330;21.924;2023-05-10T09:20:27;5.95;;;4.18;;
52816;SDS011;38687;43.330;21.924;2023-05-10T09:22:52;4.93;;;4.18;;
52816;SDS011;38687;43.330;21.924;2023-05-10T09:25:18;8.00;;;4.80;;
52816;SDS011;38687;43.330;21.924;2023-05-10T09:27:46;6.85;;;3.80;;
52816;SDS011;38687;43.330;21.924;2023-05-10T09:30:30;6.22;;;4.38;;
52816;SDS011;38687;43.330;21.924;2023-05-10T09:32:57;7.13;;;4.47;;
52816;SDS011;38687;43.330;21.924;2023-05-10T09:35:24;10.23;;;6.57;;
52816;SDS011;38687;43.330;21.924;2023-05-10T09:37:54;7.55;;;4.68;;
52816;SDS011;38687;43.330;21.924;2023-05-10T09:40:28;5.35;;;4.18;;
52816;SDS011;38687;43.330;21.924;2023-05-10T09:45:20;4.72;;;4.03;;
52816;SDS011;38687;43.330;21.924;2023-05-10T09:47:46;7.65;;;4.18;;
52816;SDS011;38687;43.330;21.924;2023-05-10T09:50:12;5.65;;;4.65;;
52816;SDS011;38687;43.330;21.924;2023-05-10T09:55:20;6.95;;;4.50;;
52816;SDS011;38687;43.330;21.924;2023-05-10T09:57:47;4.65;;;4.18;;
52816;SDS011;38687;43.330;21.924;2023-05-10T10:00:19;5.80;;;3.67;;
52816;SDS011;38687;43.330;21.924;2023-05-10T10:02:46;4.75;;;4.07;;
52816;SDS011;38687;43.330;21.924;2023-05-10T10:05:12;6.32;;;4.60;;
52816;SDS011;38687;43.330;21.924;2023-05-10T10:07:38;7.43;;;3.97;;
52816;SDS011;38687;43.330;21.924;2023-05-10T10:10:04;4.80;;;4.30;;
52816;SDS011;38687;43.330;21.924;2023-05-10T10:12:30;6.43;;;4.00;;
52816;SDS011;38687;43.330;21.924;2023-05-10T10:14:56;3.35;;;2.58;;
52816;SDS011;38687;43.330;21.924;2023-05-10T10:17:22;4.40;;;3.53;;
52816;SDS011;38687;43.330;21.924;2023-05-10T10:19:50;5.72;;;4.95;;
52816;SDS011;38687;43.330;21.924;2023-05-10T10:22:16;4.95;;;4.25;;
52816;SDS011;38687;43.330;21.924;2023-05-10T10:24:41;4.40;;;2.97;;
52816;SDS011;38687;43.330;21.924;2023-05-10T10:30:10;4.38;;;2.83;;
52816;SDS011;38687;43.330;21.924;2023-05-10T10:35:18;5.00;;;3.70;;
52816;SDS011;38687;43.330;21.924;2023-05-10T10:37:45;4.38;;;3.25;;
52816;SDS011;38687;43.330;21.924;2023-05-10T10:40:22;5.30;;;4.28;;
52816;SDS011;38687;43.330;21.924;2023-05-10T10:42:47;6.95;;;3.95;;
52816;SDS011;38687;43.330;21.924;2023-05-10T10:45:14;6.00;;;4.25;;
52816;SDS011;38687;43.330;21.924;2023-05-10T10:47:40;4.78;;;3.33;;
52816;SDS011;38687;43.330;21.924;2023-05-10T10:50:08;3.90;;;3.10;;
52816;SDS011;38687;43.330;21.924;2023-05-10T10:52:38;3.53;;;3.22;;
52816;SDS011;38687;43.330;21.924;2023-05-10T10:55:18;3.53;;;2.85;;
52816;SDS011;38687;43.330;21.924;2023-05-10T10:57:51;5.13;;;3.13;;
52816;SDS011;38687;43.330;21.924;2023-05-10T11:02:55;6.10;;;3.70;;
52816;SDS011;38687;43.330;21.924;2023-05-10T11:05:40;18.80;;;3.65;;
52816;SDS011;38687;43.330;21.924;2023-05-10T11:08:11;7.78;;;3.55;;
52816;SDS011;38687;43.330;21.924;2023-05-10T11:10:48;4.32;;;3.30;;
52816;SDS011;38687;43.330;21.924;2023-05-10T11:13:16;3.42;;;3.13;;
52816;SDS011;38687;43.330;21.924;2023-05-10T11:15:55;3.97;;;3.05;;
52816;SDS011;38687;43.330;21.924;2023-05-10T11:18:25;3.38;;;3.08;;
52816;SDS011;38687;43.330;21.924;2023-05-10T11:26:11;4.68;;;3.72;;
52816;SDS011;38687;43.330;21.924;2023-05-10T11:28:44;7.90;;;4.05;;
52816;SDS011;38687;43.330;21.924;2023-05-10T11:31:13;5.45;;;3.90;;
52816;SDS011;38687;43.330;21.924;2023-05-10T11:33:43;4.72;;;3.40;;
52816;SDS011;38687;43.330;21.924;2023-05-10T11:36:23;6.18;;;4.65;;
52816;SDS011;38687;43.330;21.924;2023-05-10T11:38:51;5.68;;;3.92;;
52816;SDS011;38687;43.330;21.924;2023-05-10T11:41:17;6.45;;;4.22;;
52816;SDS011;38687;43.330;21.924;2023-05-10T11:43:44;5.68;;;4.78;;
52816;SDS011;38687;43.330;21.924;2023-05-10T11:46:12;4.65;;;4.22;;
52816;SDS011;38687;43.330;21.924;2023-05-10T11:48:40;5.45;;;3.72;;
52816;SDS011;38687;43.330;21.924;2023-05-10T11:51:06;8.48;;;4.53;;
52816;SDS011;38687;43.330;21.924;2023-05-10T11:53:33;5.78;;;4.65;;
52816;SDS011;38687;43.330;21.924;2023-05-10T11:56:02;5.55;;;4.60;;
52816;SDS011;38687;43.330;21.924;2023-05-10T11:58:30;7.05;;;4.88;;
52816;SDS011;38687;43.330;21.924;2023-05-10T12:00:55;7.10;;;5.22;;
52816;SDS011;38687;43.330;21.924;2023-05-10T12:03:21;5.63;;;4.50;;
52816;SDS011;38687;43.330;21.924;2023-05-10T12:05:46;8.60;;;5.47;;
52816;SDS011;38687;43.330;21.924;2023-05-10T12:08:13;5.43;;;4.57;;
52816;SDS011;38687;43.330;21.924;2023-05-10T12:10:40;7.03;;;5.70;;
52816;SDS011;38687;43.330;21.924;2023-05-10T12:13:06;5.13;;;3.50;;
52816;SDS011;38687;43.330;21.924;2023-05-10T12:15:39;4.82;;;4.00;;
52816;SDS011;38687;43.330;21.924;2023-05-10T12:18:05;4.43;;;4.03;;
52816;SDS011;38687;43.330;21.924;2023-05-10T12:20:31;10.73;;;7.95;;
52816;SDS011;38687;43.330;21.924;2023-05-10T12:22:57;5.18;;;4.68;;
52816;SDS011;38687;43.330;21.924;2023-05-10T12:25:24;6.88;;;6.20;;
52816;SDS011;38687;43.330;21.924;2023-05-10T12:27:56;8.52;;;5.93;;
52816;SDS011;38687;43.330;21.924;2023-05-10T12:30:26;7.03;;;5.20;;
52816;SDS011;38687;43.330;21.924;2023-05-10T12:32:53;6.30;;;5.03;;
52816;SDS011;38687;43.330;21.924;2023-05-10T12:35:18;4.60;;;4.10;;
52816;SDS011;38687;43.330;21.924;2023-05-10T12:37:49;7.13;;;4.10;;
52816;SDS011;38687;43.330;21.924;2023-05-10T12:40:15;4.97;;;4.03;;
52816;SDS011;38687;43.330;21.924;2023-05-10T12:42:41;6.10;;;4.35;;
52816;SDS011;38687;43.330;21.924;2023-05-10T12:45:07;7.10;;;4.50;;
52816;SDS011;38687;43.330;21.924;2023-05-10T12:47:33;7.25;;;5.50;;
52816;SDS011;38687;43.330;21.924;2023-05-10T12:49:59;8.63;;;5.97;;
52816;SDS011;38687;43.330;21.924;2023-05-10T12:52:26;9.40;;;6.07;;
52816;SDS011;38687;43.330;21.924;2023-05-10T12:54:52;12.32;;;7.82;;
52816;SDS011;38687;43.330;21.924;2023-05-10T12:57:18;7.72;;;4.72;;
52816;SDS011;38687;43.330;21.924;2023-05-10T12:59:44;10.73;;;8.13;;
52816;SDS011;38687;43.330;21.924;2023-05-10T13:02:10;11.73;;;7.47;;
52816;SDS011;38687;43.330;21.924;2023-05-10T13:04:36;8.82;;;5.28;;
52816;SDS011;38687;43.330;21.924;2023-05-10T13:07:04;7.75;;;5.95;;
52816;SDS011;38687;43.330;21.924;2023-05-10T13:09:30;5.93;;;4.75;;
52816;SDS011;38687;43.330;21.924;2023-05-10T13:11:56;8.15;;;5.70;;
52816;SDS011;38687;43.330;21.924;2023-05-10T13:14:21;7.97;;;6.10;;
52816;SDS011;38687;43.330;21.924;2023-05-10T13:16:47;6.88;;;4.53;;
52816;SDS011;38687;43.330;21.924;2023-05-10T13:19:16;6.72;;;4.97;;
52816;SDS011;38687;43.330;21.924;2023-05-10T13:21:41;8.20;;;6.25;;
52816;SDS011;38687;43.330;21.924;2023-05-10T13:24:07;7.20;;;5.00;;
52816;SDS011;38687;43.330;21.924;2023-05-10T13:26:33;7.30;;;5.78;;
52816;SDS011;38687;43.330;21.924;2023-05-10T13:28:58;6.22;;;4.22;;
52816;SDS011;38687;43.330;21.924;2023-05-10T13:31:24;9.63;;;6.40;;
52816;SDS011;38687;43.330;21.924;2023-05-10T13:33:50;7.18;;;5.88;;
52816;SDS011;38687;43.330;21.924;2023-05-10T13:36:15;7.60;;;5.50;;
52816;SDS011;38687;43.330;21.924;2023-05-10T13:38:40;15.90;;;9.60;;
52816;SDS011;38687;43.330;21.924;2023-05-10T13:41:06;8.65;;;6.40;;
52816;SDS011;38687;43.330;21.924;2023-05-10T13:43:31;5.20;;;4.60;;
52816;SDS011;38687;43.330;21.924;2023-05-10T13:45:57;6.88;;;6.05;;
52816;SDS011;38687;43.330;21.924;2023-05-10T13:48:22;10.40;;;7.05;;
52816;SDS011;38687;43.330;21.924;2023-05-10T13:50:48;8.98;;;6.40;;
52816;SDS011;38687;43.330;21.924;2023-05-10T13:53:13;6.18;;;5.05;;
52816;SDS011;38687;43.330;21.924;2023-05-10T13:55:39;6.38;;;4.90;;
52816;SDS011;38687;43.330;21.924;2023-05-10T13:58:05;8.52;;;6.13;;
52816;SDS011;38687;43.330;21.924;2023-05-10T14:00:31;9.15;;;6.50;;
52816;SDS011;38687;43.330;21.924;2023-05-10T14:02:57;8.77;;;7.82;;
52816;SDS011;38687;43.330;21.924;2023-05-10T14:05:23;8.13;;;6.35;;
52816;SDS011;38687;43.330;21.924;2023-05-10T14:07:50;7.93;;;5.72;;
52816;SDS011;38687;43.330;21.924;2023-05-10T14:10:15;6.05;;;4.68;;
52816;SDS011;38687;43.330;21.924;2023-05-10T14:12:44;7.55;;;4.32;;
52816;SDS011;38687;43.330;21.924;2023-05-10T14:15:10;7.47;;;4.68;;
52816;SDS011;38687;43.330;21.924;2023-05-10T14:17:36;7.03;;;4.90;;
52816;SDS011;38687;43.330;21.924;2023-05-10T14:20:02;6.32;;;4.75;;
52816;SDS011;38687;43.330;21.924;2023-05-10T14:22:28;5.20;;;4.70;;
52816;SDS011;38687;43.330;21.924;2023-05-10T14:24:54;6.88;;;5.90;;
52816;SDS011;38687;43.330;21.924;2023-05-10T14:27:19;9.13;;;5.63;;
52816;SDS011;38687;43.330;21.924;2023-05-10T14:29:45;6.05;;;5.13;;
52816;SDS011;38687;43.330;21.924;2023-05-10T14:32:10;7.68;;;6.03;;
52816;SDS011;38687;43.330;21.924;2023-05-10T14:34:36;8.05;;;5.97;;
52816;SDS011;38687;43.330;21.924;2023-05-10T14:37:01;9.15;;;6.65;;
52816;SDS011;38687;43.330;21.924;2023-05-10T14:39:27;7.82;;;6.95;;
52816;SDS011;38687;43.330;21.924;2023-05-10T14:41:54;10.15;;;7.30;;
52816;SDS011;38687;43.330;21.924;2023-05-10T14:44:20;11.20;;;8.85;;
52816;SDS011;38687;43.330;21.924;2023-05-10T14:46:45;10.02;;;7.47;;
52816;SDS011;38687;43.330;21.924;2023-05-10T14:49:11;8.63;;;6.13;;
52816;SDS011;38687;43.330;21.924;2023-05-10T14:51:36;9.55;;;5.90;;
52816;SDS011;38687;43.330;21.924;2023-05-10T14:54:02;8.73;;;5.75;;
52816;SDS011;38687;43.330;21.924;2023-05-10T14:56:33;11.93;;;6.95;;
52816;SDS011;38687;43.330;21.924;2023-05-10T14:58:59;9.25;;;7.15;;
52816;SDS011;38687;43.330;21.924;2023-05-10T15:01:25;9.07;;;6.28;;